Air Resources Laboratory banner image
Air Resources Laboratory web site National Oceanic and Atmospheric Administration (NOAA)

ga metar


KABY 220953Z AUTO 22004KT 10SM CLR 26/23 A2992 RMK AO2 SLP129 T02560228 $=
KAGS 220953Z AUTO 24005KT 10SM CLR 24/22 A2985 RMK AO2 SLP104 T02440222=
KAHN 220951Z AUTO VRB03KT 7SM BKN005 22/22 A2985 RMK AO2 SLP103 T02220222=
KAMG 220953Z AUTO 23003KT 10SM CLR 25/22 A2990 RMK AO2 SLP120 T02500222=
KATL 220952Z 26009KT 10SM FEW022 SCT060 BKN140 BKN250 22/20 A2989 RMK AO2
 SLP112 SHRA SW-NW T02220200=
KAYS 220955Z AUTO 24004KT 10SM CLR 24/23 A2990 RMK AO2 T02430226=
KBQK 220955Z AUTO 25008KT 10SM SCT085 26/22 A2990 RMK AO2=
KCCO 220955Z AUTO 00000KT 10SM SCT008 SCT011 SCT100 23/21 A2989 RMK AO2
 T02300207=
KCSG 220951Z AUTO 27004KT 10SM BKN008 BKN016 OVC023 23/22 A2990 RMK AO2 SLP118
 T02330222=
KDNL 220953Z AUTO 25004KT 10SM CLR 26/23 A2986 RMK AO2 SLP105 T02560228=
KDNN 220955Z AUTO 16004KT 10SM CLR 21/21 A2984 RMK AO2=
KFFC 220953Z AUTO 28006KT 10SM FEW014 SCT029 BKN050 23/21 A2990 RMK AO2 SLP120
 T02330211=
KFTY 220953Z 19006KT 6SM -RA BR SCT060 SCT075 BKN100 22/22 A2986 RMK AO2 RAB46
 SLP103 P0002 T02220217=
KGVL 220953Z AUTO 25009KT 10SM CLR 22/21 A2988 RMK AO2 SLP102 T02170211=
KLGC 220955Z AUTO 00000KT 10SM SCT011 23/23 A2991 RMK AO2 T02300227=
KLHW 220956Z AUTO 25004KT 10SM CLR 25/23 A2986 RMK AO2 SLP114 T02510226 $=
KLSF 220956Z AUTO 00000KT 10SM BKN024 22/22 A2989 RMK AO2 CIG 023 RWY15 SLP124
 T02240224=
KLZU 220956Z AUTO 24010KT 10SM CLR 22/21 A2988 RMK AO2 SLP118 T02170206=
KMCN 220953Z AUTO 23004KT 10SM FEW013 24/23 A2988 RMK AO2 SLP114 T02390228=
KMGE 220956Z AUTO 20008KT 10SM -RA FEW120 22/19 A2985 RMK AO2
 DZB31E32RAB32E49DZB49E53RAB53 SLP099 P0000 T02160191 $=
KMGR 220955Z AUTO 23003KT 7SM CLR 23/22 A2993 RMK AO2=
KOPN 220955Z AUTO 31004KT 10SM OVC012 23/21 A2992 RMK AO2=
KPDK 220953Z 22008KT 10SM CLR 22/19 A2988 RMK AO2 SLP100 T02220194=
KRMG 220953Z AUTO 19003KT 10SM SCT120 21/20 A2981 RMK AO2 SLP085 T02060200=
KRYY 220948Z AUTO 21005KT 10SM -RA FEW100 SCT120 22/18 A2986 RMK AO2 RAB29
 SLP832 P0000 T02170183=
KSAV 220953Z 26005KT 10SM SCT250 25/23 A2988 RMK AO2 SLP117 T02500228=
KSSI 220953Z AUTO 27008KT 10SM CLR 27/23 A2988 RMK AO2 SLP121 T02670228=
KSVN 220956Z AUTO 26004KT 10SM CLR 25/23 A2985 RMK AO2 SLP111 T02500225 $=
KVAD 220956Z AUTO 24005KT 10SM CLR 25/23 A2990 RMK AO2 SLP125 T02460228 $=
KVDI 220955Z AUTO 24003KT 10SM CLR 25/21 A2989 RMK AO2=
KVLD 220953Z AUTO 23003KT 10SM CLR 23/23 A2992 RMK AO2 SLP136 T02330228=
KVPC 220953Z AUTO 15004KT 10SM FEW120 21/18 A2983 RMK AO2 RAB11E20 SLP089 P0000
 T02110183=
KWDR 220955Z AUTO 23005KT 10SM CLR 22/21 A2989 RMK AO1=
KWRB 220956Z 24005KT 10SM BKN130 25/22 A2988 RMK AO2A SLP117 T02530222=